Avianca A319 near Bogota on Jan 27th 2019, hail strike

Last Update: January 31, 2019 / 00:15:29 GMT/Zulu time

Bookmark this article
Incident Facts

Date of incident
Jan 27, 2019

Classification
Incident

Airline
Avianca

Flight number
AV-8464

Destination
Bogota, Colombia

Aircraft Registration
N694AV

Aircraft Type
Airbus A319

ICAO Type Designator
A319

An Avianca Airbus A319-100, registration N694AV performing flight AV-8464 from Cali to Bogota (Colombia), was descending towards Bogota when the aircraft encountered hail causing both windshields to crack and a deformation of the radome. The aircraft continued for a safe landing on Bogota's runway 31R.

The occurrence aircraft is still on the ground in Bogota 3 days later.

Metars:
SKBO 280000Z 30004KT 9999 FEW020 16/12 A3028=
SKBO 272300Z 25008KT 9999 FEW020 17/11 A3026=
SKBO 272200Z 28011KT 9999 SCT020TCU 19/11 A3024 RMK TCU/SE=
SKBO 272100Z 25012KT 9999 SCT020TCU 20/11 A3023 RMK TCU/NE=
SKBO 272000Z 28012KT 9999 SCT020 21/10 A3025=
SKBO 271900Z 23012KT 9999 BKN020 19/10 A3028=
SKBO 271800Z 29010KT 9999 BKN020 21/10 A3030=
Aircraft Registration Data
Registration mark
N694AV
Country of Registration
United States
Date of Registration
Aiqnqdcih mfpf Subscribe to unlock
TCDS Ident. No.
Manufacturer
AIRBUS
Aircraft Model / Type
A319-132
Number of Seats
ICAO Aircraft Type
A319
Year of Manufacture
Serial Number
Aircraft Address / Mode S Code (HEX)
Engine Count
Engine Manufacturer
Engine Model
Engine Type
Pounds of Thrust
Main Owner
Dggjkcinmpqhclcibhjklfjbf cA dnifkdcqdp AhggipcbbmmidcmbmAm hnpdfhAglnkblpkcfipgqqmpllqmqkibjcellecigqlbdhqhbmfim Subscribe to unlock
Incident Facts

Date of incident
Jan 27, 2019

Classification
Incident

Airline
Avianca

Flight number
AV-8464

Destination
Bogota, Colombia

Aircraft Registration
N694AV

Aircraft Type
Airbus A319

ICAO Type Designator
A319

This article is published under license from Avherald.com. © of text by Avherald.com.
Article source

You can read 2 more free articles without a subscription.

Subscribe now and continue reading without any limits!

Are you a subscriber? Login
Subscribe

Read unlimited articles and receive our daily update briefing. Gain better insights into what is happening in commercial aviation safety.

Free newsletter

Want to know more and stay ahead? Get our free weekly newsletter and join 5470 existing subscribers.

By subscribing, you accept our terms and conditions and confirm that you've read our privacy policy.

Send tip

Support AeroInside by sending a small tip amount.

Related articles

Newest articles

Subscribe today

Are you researching aviation incidents? Get access to AeroInside Insights, unlimited read access and receive the daily newsletter.

Pick your plan and subscribe

Partner

Blockaviation logo

A new way to document and demonstrate airworthiness compliance and aircraft value. Find out more.

Virtual Speech logo

ELITE Simulation Solutions is a leading global provider of Flight Simulation Training Devices, IFR training software as well as flight controls and related services. Find out more.

Get updates

Never miss an article from AeroInside. Subscribe to our free weekly newsletter and join 5470 existing subscribers.

By subscribing, you accept our terms and conditions and that you've read our privacy policy.

AeroInside Blog
Popular aircraft
Airbus A320
Boeing 737-800
Boeing 737-800 MAX
Popular airlines
American Airlines
United
Delta
Air Canada
Lufthansa
British Airways